Mercedes, Texas
Current Conditions -  °F | °C
As of 7:35 PM on Tuesday 25 Nov 2014 (Local Time) from KT65 Reporting Station
Clear Clear  
Wind Chill: 56°   Ceiling: Unl
Heat Index: 56°   Visibility: 10mi
Dew Point: 37°   Wind: 0mph
Humidity: 50%   Direction: NA
Pressure: 30.29"   Gusts: NA
Location:  26.15°N, 97.91°W
Report Text: KT65 260135Z AUTO 00000KT 10SM CLR 13/03 A3029 RMK AO2 T01330030
Loading
Personal Weather Stations






























Interactive Weather Map New forecast layout! Learn more

10-Day Weather Forecast

Advertisements
Track Severe Weather on mobile